createdAt,value
2022-10-17T00:04:28.255Z,56.87
2022-10-17T00:10:52.477Z,57.03
2022-10-17T00:17:17.085Z,57.31
2022-10-17T00:23:26.348Z,57.49
2022-10-17T00:29:52.561Z,57.63
2022-10-17T00:36:11.809Z,57.72
2022-10-17T00:42:37.051Z,57.77
2022-10-17T00:49:02.752Z,57.82
2022-10-17T00:55:28.622Z,57.86
2022-10-17T01:01:53.866Z,57.91
2022-10-17T01:08:10.130Z,57.84
2022-10-17T01:14:52.169Z,57.75
2022-10-17T01:21:37.330Z,57.82
2022-10-17T01:28:17.606Z,57.85
2022-10-17T01:34:37.917Z,57.86
2022-10-17T01:41:20.587Z,57.92
2022-10-17T01:47:44.837Z,58.08
2022-10-17T01:54:03.045Z,58.17
2022-10-17T02:00:27.354Z,58.17
2022-10-17T02:06:51.776Z,58.15
2022-10-17T02:13:34.008Z,58.19
2022-10-17T02:20:11.739Z,58.21
2022-10-17T02:26:40.230Z,58.26
2022-10-17T02:33:07.692Z,58.28
2022-10-17T02:39:30.347Z,58.32
2022-10-17T02:45:54.723Z,58.35
2022-10-17T02:52:28.568Z,58.37
2022-10-17T02:58:53.035Z,58.47
2022-10-17T03:05:10.622Z,58.53
2022-10-17T03:11:34.898Z,58.58
2022-10-17T03:17:59.299Z,58.58
2022-10-17T03:24:23.845Z,58.60
2022-10-17T03:30:48.204Z,58.63
2022-10-17T03:37:12.427Z,58.61
2022-10-17T03:43:29.293Z,58.64
2022-10-17T03:49:53.623Z,58.64
2022-10-17T03:56:17.572Z,58.63
2022-10-17T04:02:41.814Z,58.72
2022-10-17T04:09:06.144Z,58.68
2022-10-17T04:15:37.811Z,58.68
2022-10-17T04:22:05.058Z,58.63
2022-10-17T04:28:29.377Z,58.58
2022-10-17T04:34:53.712Z,58.28
2022-10-17T04:41:18.102Z,58.05
2022-10-17T04:47:42.436Z,57.74
2022-10-17T04:54:06.601Z,57.34
2022-10-17T05:00:30.939Z,56.94
2022-10-17T05:06:58.120Z,56.64
2022-10-17T05:13:10.975Z,56.30
2022-10-17T05:19:35.291Z,55.94
2022-10-17T05:25:59.512Z,55.65
2022-10-17T05:32:17.091Z,55.47
2022-10-17T05:38:41.445Z,55.27
2022-10-17T05:45:05.870Z,55.10
2022-10-17T05:51:30.164Z,54.97
2022-10-17T05:58:06.263Z,54.89
2022-10-17T06:04:13.475Z,54.94
2022-10-17T06:10:39.821Z,54.93
2022-10-17T06:17:04.041Z,54.96
2022-10-17T06:23:28.222Z,54.93
2022-10-17T06:29:52.467Z,54.89
2022-10-17T06:36:10.955Z,54.90
2022-10-17T06:42:35.230Z,54.89
2022-10-17T06:48:59.425Z,55.24
2022-10-17T06:55:32.736Z,55.78
2022-10-17T07:02:15.600Z,56.33
2022-10-17T07:08:19.079Z,56.63
2022-10-17T07:14:43.315Z,56.78
2022-10-17T07:21:07.778Z,56.83
2022-10-17T07:27:32.074Z,56.96
2022-10-17T07:33:56.506Z,57.07
2022-10-17T07:40:20.814Z,57.18
2022-10-17T07:46:45.008Z,57.22
2022-10-17T07:53:12.187Z,57.19
2022-10-17T07:59:29.343Z,57.08
2022-10-17T08:05:53.554Z,57.02
2022-10-17T08:12:17.834Z,56.93
2022-10-17T08:18:41.997Z,56.91
2022-10-17T08:25:00.732Z,56.91
2022-10-17T08:31:17.598Z,56.92
2022-10-17T08:37:41.837Z,56.94
2022-10-17T08:44:36.144Z,56.91
2022-10-17T08:51:12.205Z,56.84
2022-10-17T08:57:35.065Z,56.84
2022-10-17T09:04:11.248Z,56.85
2022-10-17T09:10:44.470Z,56.82
2022-10-17T09:17:15.711Z,56.83
2022-10-17T09:23:42.451Z,56.88
2022-10-17T09:30:07.303Z,56.91
2022-10-17T09:36:31.559Z,56.91
2022-10-17T09:42:48.481Z,56.95
2022-10-17T09:49:17.220Z,56.97
2022-10-17T09:55:47.714Z,57.01
2022-10-17T10:02:18.482Z,57.04
2022-10-17T10:08:43.767Z,57.07
2022-10-17T10:15:16.654Z,57.12
2022-10-17T10:21:47.205Z,57.14
2022-10-17T10:28:14.209Z,57.16
2022-10-17T10:34:39.437Z,57.17
2022-10-17T10:41:06.450Z,57.19
2022-10-17T10:47:30.980Z,57.21
2022-10-17T10:53:53.676Z,57.22
2022-10-17T11:00:24.436Z,57.23
2022-10-17T11:06:54.522Z,57.26
2022-10-17T11:13:21.629Z,57.28
2022-10-17T11:20:01.431Z,57.29
2022-10-17T11:26:28.766Z,57.30
2022-10-17T11:32:46.877Z,57.32
2022-10-17T11:39:14.374Z,57.32
2022-10-17T11:45:27.454Z,57.33
2022-10-17T11:52:09.679Z,57.32
2022-10-17T11:58:39.622Z,57.29
2022-10-17T12:05:04.291Z,57.28
2022-10-17T12:11:45.798Z,57.26
2022-10-17T12:18:16.471Z,57.20
2022-10-17T12:24:40.812Z,57.09
2022-10-17T12:31:09.596Z,56.86
2022-10-17T12:37:33.822Z,56.62
2022-10-17T12:43:58.611Z,56.24
2022-10-17T12:50:25.686Z,55.77
2022-10-17T12:56:50.028Z,55.48
2022-10-17T13:03:23.961Z,55.27
2022-10-17T13:09:27.807Z,55.00
2022-10-17T13:15:53.265Z,54.19
2022-10-17T13:22:17.483Z,54.63
2022-10-17T13:28:44.786Z,54.67
2022-10-17T13:35:14.737Z,54.52
2022-10-17T13:41:41.780Z,54.43
2022-10-17T13:48:09.262Z,54.44
2022-10-17T13:54:36.640Z,54.58
2022-10-17T14:01:01.157Z,54.54
2022-10-17T14:07:34.215Z,54.55
2022-10-17T14:13:46.652Z,54.67
2022-10-17T14:20:48.178Z,54.90
2022-10-17T14:27:01.474Z,55.33
2022-10-17T14:33:26.081Z,55.50
2022-10-17T14:39:49.024Z,55.64
2022-10-17T14:46:13.272Z,55.73
2022-10-17T14:52:52.416Z,55.78
2022-10-17T14:59:30.076Z,55.89
2022-10-17T15:06:00.893Z,56.01
2022-10-17T15:12:25.763Z,56.30
2022-10-17T15:18:49.152Z,56.47
2022-10-17T15:25:13.131Z,57.14
2022-10-17T15:31:37.416Z,58.01
2022-10-17T15:38:02.718Z,58.51
2022-10-17T15:43:59.067Z,58.87
2022-10-17T15:50:23.440Z,58.69
2022-10-17T15:56:47.947Z,59.26
2022-10-17T16:03:15.191Z,59.48
2022-10-17T16:09:32.146Z,59.62
2022-10-17T16:15:59.069Z,59.73
2022-10-17T16:22:23.276Z,59.78
2022-10-17T16:28:47.608Z,59.76
2022-10-17T16:35:11.860Z,59.71
2022-10-17T16:41:36.170Z,59.51
2022-10-17T16:48:01.833Z,59.26
2022-10-17T16:54:20.740Z,59.10
2022-10-17T17:00:45.059Z,59.81
2022-10-17T17:07:09.472Z,60.39
2022-10-17T17:13:35.788Z,60.44
2022-10-17T17:20:02.842Z,60.06
2022-10-17T17:26:27.130Z,59.86
2022-10-17T17:32:50.148Z,59.69
2022-10-17T17:39:14.357Z,59.62
2022-10-17T17:45:38.686Z,59.51
2022-10-17T17:58:31.871Z,59.31
2022-10-17T18:04:54.890Z,59.39
2022-10-17T18:11:21.249Z,59.37
2022-10-17T18:17:47.627Z,59.36
2022-10-17T18:24:11.902Z,59.34
2022-10-17T18:30:31.037Z,59.31
2022-10-17T18:36:58.804Z,59.28
2022-10-17T18:43:15.573Z,59.25
2022-10-17T18:49:35.126Z,59.23
2022-10-17T18:56:00.765Z,59.19
2022-10-17T19:02:28.041Z,59.16
2022-10-17T19:08:54.896Z,59.14
2022-10-17T19:15:21.336Z,59.12
2022-10-17T19:21:49.239Z,59.08
2022-10-17T19:28:13.478Z,59.08
2022-10-17T19:34:37.833Z,59.01
2022-10-17T19:41:02.108Z,58.97
2022-10-17T19:47:26.403Z,58.96
2022-10-17T19:53:42.958Z,58.96
2022-10-17T20:00:07.233Z,58.83
2022-10-17T20:06:32.767Z,58.78
2022-10-17T20:12:57.090Z,58.99
2022-10-17T20:19:21.434Z,58.85
2022-10-17T20:25:38.339Z,58.86
2022-10-17T20:32:02.726Z,58.79
2022-10-17T20:38:26.967Z,58.82
2022-10-17T20:44:51.274Z,58.84
2022-10-17T20:51:15.476Z,58.83
2022-10-17T20:57:23.294Z,58.86
2022-10-17T21:03:47.516Z,58.87
2022-10-17T21:10:34.552Z,58.88
2022-10-17T21:16:58.049Z,58.87
2022-10-17T21:23:24.099Z,58.86
2022-10-17T21:29:47.178Z,58.86
2022-10-17T21:36:11.499Z,58.86
2022-10-17T21:42:34.713Z,58.88
2022-10-17T21:48:58.893Z,58.91
2022-10-17T21:55:23.214Z,58.95
2022-10-17T22:01:50.651Z,58.95
2022-10-17T22:08:07.703Z,58.98
2022-10-17T22:14:37.626Z,59.01
2022-10-17T22:20:55.545Z,59.06
2022-10-17T22:27:19.498Z,59.09
2022-10-17T22:33:43.826Z,59.26
2022-10-17T22:40:08.200Z,59.39
2022-10-17T22:46:31.405Z,59.54
2022-10-17T22:52:48.347Z,59.66
2022-10-17T22:59:11.260Z,59.72
2022-10-17T23:05:29.014Z,59.77
2022-10-17T23:11:33.039Z,59.76
2022-10-17T23:17:57.242Z,59.67
2022-10-17T23:24:21.546Z,59.81
2022-10-17T23:30:38.404Z,59.81
2022-10-17T23:37:02.711Z,59.85
2022-10-17T23:43:26.929Z,59.90
2022-10-17T23:49:51.398Z,59.94
2022-10-17T23:56:08.388Z,60.01
